Latest Coastal Weather Observations for Troughton Island

IDW60701

Issued at 5:43 pm WST Tuesday 17 October 2017 (issued every 10 minutes, with the page automatically refreshed every 10 minutes)

About coastal observations | Map of coastal stations | Coastal observations for WA | Marine services | Other Formats
Station Details ID: 001007 Name: TROUGHTON ISLAND Lat: -13.75 Lon: 126.15 Height: 6.0 m
Data from the previous 72 hours. | See also: Recent months at Troughton Island
Date/Time
WST
Temp
°C
Wind Pressure Rain since
9am
mm
Weather Cloud Vis
km
Sea
Height
m
Swell
Dir  Spd
kts
Gust
kts
hPa Trend Height
m
Period
s
Dir
17/05:30pm 29.3 WSW 10 12 1006.2 - 0.0 - - - - - - -
17/05:00pm 29.7 SW 9 13 1006.5 - 0.0 - - - - - - -
17/04:30pm 30.0 W 14 18 1005.8 - 0.0 - - - - - - -
17/04:00pm 30.9 W 17 21 1005.3 - 0.0 - - - - - - -
17/03:30pm 31.0 W 19 23 1004.5 - 0.0 - - - - - - -
17/03:00pm 31.0 W 20 23 1004.2 - 0.0 - - - - - - -
17/02:30pm 31.7 W 17 21 1004.7 - 0.0 - - - - - - -
17/02:00pm 31.6 WNW 18 20 1005.0 - 0.0 - - - - - - -
17/01:30pm 31.8 W 16 19 1005.1 - 0.0 - - - - - - -
17/01:00pm 32.0 W 16 19 1005.5 - 0.0 - - - - - - -
17/12:30pm 32.3 W 15 17 1006.2 - 0.0 - - - - - - -
17/12:00pm 32.5 W 15 17 1006.8 - 0.0 - - - - - - -
17/11:30am 32.0 W 14 16 1007.5 - 0.0 - - - - - - -
17/11:00am 32.0 W 13 15 1008.0 - 0.0 - - - - - - -
17/10:30am 31.8 W 13 15 1008.3 - 0.0 - - - - - - -
17/10:00am 32.0 W 12 14 1008.4 - 0.0 - - - - - - -
17/09:30am 31.5 W 13 15 1008.6 - 0.0 - - - - - - -
17/09:00am 31.1 W 14 16 1008.7 - 0.0 - - - - - - -
17/08:30am 30.9 W 15 17 1008.6 - 0.0 - - - - - - -
17/08:00am 30.6 W 15 17 1008.7 - 0.0 - - - - - - -
17/07:30am 30.3 W 14 17 1008.4 - 0.0 - - - - - - -
17/07:00am 29.8 W 14 16 1008.2 - 0.0 - - - - - - -
17/06:30am 29.4 WSW 14 16 1007.9 - 0.0 - - - - - - -
17/06:00am 28.8 WSW 14 17 1007.7 - 0.0 - - - - - - -
17/05:30am 28.5 WSW 15 17 1007.4 - 0.0 - - - - - - -
17/05:00am 28.3 WSW 14 16 1007.2 - 0.0 - - - - - - -
17/04:30am 28.5 WSW 14 16 1007.1 - 0.0 - - - - - - -
17/04:00am 28.3 W 14 17 1006.6 - 0.0 - - - - - - -
17/03:30am 28.2 W 13 16 1006.3 - 0.0 - - - - - - -
17/03:00am 28.4 W 15 18 1006.0 - 0.0 - - - - - - -
17/02:30am 28.4 W 15 18 1006.1 - 0.0 - - - - - - -
17/02:00am 28.5 W 16 18 1006.2 - 0.0 - - - - - - -
17/01:30am 28.5 W 16 18 1006.4 - 0.0 - - - - - - -
17/01:00am 28.5 W 15 17 1006.6 - 0.0 - - - - - - -
17/12:30am 28.6 WNW 14 17 1006.7 - 0.0 - - - - - - -
17/12:00am 28.7 WNW 14 16 1006.9 - 0.0 - - - - - - -
 
Date/Time
WST
Temp
°C
Wind Pressure Rain since
9am
mm
Weather Cloud Vis
km
Sea
Height
m
Swell
Dir  Spd
kts
Gust
kts
hPa Trend Height
m
Period
s
Dir
16/11:30pm 28.8 W 14 16 1007.1 - 0.0 - - - - - - -
16/11:00pm 28.9 W 13 15 1007.4 - 0.0 - - - - - - -
16/10:30pm 28.9 WNW 13 15 1007.7 - 0.0 - - - - - - -
16/10:00pm 29.0 W 16 17 1007.8 - 0.0 - - - - - - -
16/09:30pm 29.1 WNW 14 17 1007.9 - 0.0 - - - - - - -
16/09:00pm 29.0 WNW 14 16 1007.8 - 0.0 - - - - - - -
16/08:30pm 29.1 WNW 12 16 1007.8 - 0.0 - - - - - - -
16/08:00pm 29.2 WNW 16 19 1007.3 - 0.0 - - - - - - -
16/07:30pm 29.1 WNW 16 20 1006.8 - 0.0 - - - - - - -
16/07:00pm 29.2 WNW 16 20 1006.4 - 0.0 - - - - - - -
16/06:30pm 29.2 WNW 18 20 1006.2 - 0.0 - - - - - - -
16/06:00pm 29.2 WNW 17 20 1005.8 - 0.0 - - - - - - -
16/05:30pm 29.4 WNW 16 19 1005.4 - 0.0 - - - - - - -
16/05:00pm 29.9 WNW 15 18 1005.1 - 0.0 - - - - - - -
16/04:30pm 30.6 WNW 15 18 1004.7 - 0.0 - - - - - - -
16/04:00pm 31.1 WNW 16 18 1004.7 - 0.0 - - - - - - -
16/03:30pm 31.6 WNW 15 19 1004.8 - 0.0 - - - - - - -
16/03:00pm 31.8 W 15 17 1004.9 - 0.0 - - - - - - -
16/02:30pm 32.1 WNW 14 16 1005.2 - 0.0 - - - - - - -
16/02:00pm 32.8 W 14 16 1005.4 - 0.0 - - - - - - -
16/01:30pm 32.7 W 12 14 1005.6 - 0.0 - - - - - - -
16/01:00pm 32.4 WSW 11 13 1006.0 - 0.0 - - - - - - -
16/12:30pm 32.1 W 11 13 1006.4 - 0.0 - - - - - - -
16/12:00pm 32.7 WSW 11 14 1007.0 - 0.0 - - - - - - -
16/11:30am 32.4 WSW 10 12 1007.6 - 0.0 - - - - - - -
16/11:00am 32.2 WSW 10 13 1008.0 - 0.0 - - - - - - -
16/10:30am 32.2 SW 10 14 1008.5 - 0.0 - - - - - - -
16/10:00am 31.6 WSW 11 12 1008.9 - 0.0 - - - - - - -
16/09:30am 31.7 WSW 11 13 1009.1 - 0.0 - - - - - - -
16/09:00am 31.5 WSW 13 15 1009.1 - 0.0 - - - - - - -
16/08:30am 31.1 W 13 16 1009.2 - 0.0 - - - - - - -
16/08:00am 30.6 W 13 16 1009.3 - 0.0 - - - - - - -
16/07:30am 30.6 W 13 15 1009.3 - 0.0 - - - - - - -
16/07:00am 30.1 W 13 15 1009.1 - 0.0 - - - - - - -
16/06:30am 29.6 W 12 14 1009.0 - 0.0 - - - - - - -
16/06:00am 29.0 WNW 8 9 1008.8 - 0.0 - - - - - - -
16/05:30am 28.5 WNW 7 9 1008.6 - 0.0 - - - - - - -
16/05:00am 28.2 WNW 6 7 1008.4 - 0.0 - - - - - - -
16/04:30am 28.2 NNW 5 6 1008.1 - 0.0 - - - - - - -
16/04:00am 28.6 N 5 6 1007.8 - 0.0 - - - - - - -
16/03:30am 28.5 NNE 4 5 1007.9 - 0.0 - - - - - - -
16/03:00am 28.5 N 5 6 1007.6 - 0.0 - - - - - - -
16/02:30am 28.7 NNE 6 8 1007.6 - 0.0 - - - - - - -
16/02:00am 28.6 NNE 7 9 1007.4 - 0.0 - - - - - - -
16/01:30am 28.5 NE 6 8 1007.7 - 0.0 - - - - - - -
16/01:00am 28.8 ENE 6 7 1008.0 - 0.0 - - - - - - -
16/12:30am 28.7 ESE 6 7 1008.3 - 0.0 - - - - - - -
16/12:00am 28.9 SE 12 14 1008.5 - 0.0 - - - - - - -
 
Date/Time
WST
Temp
°C
Wind Pressure Rain since
9am
mm
Weather Cloud Vis
km
Sea
Height
m
Swell
Dir  Spd
kts
Gust
kts
hPa Trend Height
m
Period
s
Dir
15/11:30pm 28.9 ESE 6 9 1008.7 - 0.0 - - - - - - -
15/11:00pm 28.7 ENE 6 7 1008.5 - 0.0 - - - - - - -
15/10:30pm 28.4 SW 3 6 1009.0 - 0.0 - - - - - - -
15/10:00pm 28.5 SSW 8 10 1009.1 - 0.0 - - - - - - -
15/09:30pm 28.1 S 11 14 1009.6 - 0.0 - - - - - - -
15/09:00pm 27.9 SSE 17 19 1009.9 - 0.0 - - - - - - -
15/08:30pm 29.3 S 17 21 1009.8 - 0.0 - - - - - - -
15/08:10pm 29.0 SSW 16 23 1009.8 - 0.0 - - - - - - -
15/08:00pm 29.6 WSW 10 13 1009.6 - 0.0 - - - - - - -
15/07:30pm 29.5 WSW 9 11 1009.0 - 0.0 - - - - - - -
15/07:00pm 29.4 WNW 9 10 1008.6 - 0.0 - - - - - - -
15/06:30pm 29.5 WNW 9 11 1007.6 - 0.0 - - - - - - -
15/06:00pm 29.6 NW 9 11 1007.3 - 0.0 - - - - - - -
15/05:30pm 29.7 WNW 10 11 1006.9 - 0.0 - - - - - - -
15/05:00pm 30.5 WNW 11 13 1006.3 - 0.0 - - - - - - -
15/04:30pm 30.9 NW 10 12 1005.8 - 0.0 - - - - - - -
15/04:00pm 31.2 WNW 10 11 1005.4 - 0.0 - - - - - - -
15/03:30pm 31.7 WNW 10 11 1005.4 - 0.0 - - - - - - -
15/03:00pm 32.1 WNW 10 12 1005.6 - 0.0 - - - - - - -
15/02:30pm 32.0 WNW 10 12 1005.7 - 0.0 - - - - - - -
15/02:00pm 32.4 W 11 12 1005.9 - 0.0 - - - - - - -
15/01:30pm 32.3 W 10 12 1006.2 - 0.0 - - - - - - -
15/01:00pm 31.8 WNW 10 12 1006.8 - 0.0 - - - - - - -
15/12:30pm 32.2 WNW 9 11 1007.4 - 0.0 - - - - - - -
15/12:00pm 31.9 NW 8 11 1007.9 - 0.0 - - - - - - -
15/11:30am 31.8 NW 8 9 1008.4 - 0.0 - - - - - - -
15/11:00am 31.4 W 5 7 1008.9 - 0.0 - - - - - - -
15/10:30am 31.0 WSW 4 7 1009.2 - 0.0 - - - - - - -
15/10:00am 30.8 W 5 6 1009.7 - 0.0 - - - - - - -
15/09:30am 29.9 SW 4 5 1009.9 - 0.0 - - - - - - -
15/09:00am 30.1 SW 5 7 1009.6 - 0.0 - - - - - - -
15/08:30am 30.1 SW 5 6 1009.5 - 0.0 - - - - - - -
15/08:00am 30.5 WSW 4 5 1009.6 - 0.0 - - - - - - -
15/07:30am 30.5 WSW 4 5 1009.6 - 0.0 - - - - - - -
15/07:00am 29.7 W 4 5 1009.3 - 0.0 - - - - - - -
15/06:30am 29.2 NW 4 5 1008.9 - 0.0 - - - - - - -
15/06:00am 28.8 NW 4 6 1008.4 - 0.0 - - - - - - -
15/05:30am 28.5 WNW 4 5 1008.0 - 0.0 - - - - - - -
15/05:00am 28.3 CALM 0 0 1007.5 - 0.0 - - - - - - -
15/04:30am 28.2 CALM 0 0 1007.3 - 0.0 - - - - - - -
15/04:00am 28.3 W 3 5 1006.6 - 0.0 - - - - - - -
15/03:30am 28.4 W 5 7 1006.5 - 0.0 - - - - - - -
15/03:00am 28.4 W 6 7 1006.2 - 0.0 - - - - - - -
15/02:30am 28.4 W 5 6 1006.0 - 0.0 - - - - - - -
15/02:00am 28.4 W 5 7 1006.0 - 0.0 - - - - - - -
15/01:30am 28.4 W 6 7 1005.9 - 0.0 - - - - - - -
15/01:00am 28.5 W 6 7 1006.2 - 0.0 - - - - - - -
15/12:30am 28.6 WNW 6 7 1006.5 - 0.0 - - - - - - -
15/12:00am 28.6 W 5 6 1006.8 - 0.0 - - - - - - -
 
Date/Time
WST
Temp
°C
Wind Pressure Rain since
9am
mm
Weather Cloud Vis
km
Sea
Height
m
Swell
Dir  Spd
kts
Gust
kts
hPa Trend Height
m
Period
s
Dir
14/11:30pm 28.4 W 6 7 1006.9 - 0.0 - - - - - - -
14/11:00pm 28.5 WSW 6 7 1007.3 - 0.0 - - - - - - -
14/10:30pm 28.5 WSW 7 8 1007.7 - 0.0 - - - - - - -
14/10:00pm 28.6 SW 7 9 1008.5 - 0.0 - - - - - - -
14/09:30pm 28.7 SW 8 10 1008.5 - 0.0 - - - - - - -
14/09:00pm 28.8 WSW 9 10 1008.4 - 0.0 - - - - - - -
14/08:30pm 28.9 SW 9 10 1008.3 - 0.0 - - - - - - -
14/08:00pm 29.3 WSW 9 11 1008.2 - 0.0 - - - - - - -
14/07:30pm 29.2 WSW 9 11 1008.0 - 0.0 - - - - - - -
14/07:00pm 29.4 SW 11 13 1008.2 - 0.0 - - - - - - -
14/06:30pm 29.3 WSW 8 9 1008.0 - 0.0 - - - - - - -
14/06:00pm 29.4 W 7 8 1007.2 - 0.0 - - - - - - -

Other Formats:

Comma delimited format used in spreadsheet applications
http://www.bom.gov.au/fwo/IDW60701/IDW60701.94102.axf

JavaScript Object Notation format (JSON) in row-major order
http://www.bom.gov.au/fwo/IDW60701/IDW60701.94102.json